sensor_id;sensor_type;location;lat;lon;timestamp;P1;durP1;ratioP1;P2;durP2;ratioP2
10661;SDS011;5379;51.034;7.006;2023-02-14T00:02:16;3.70;;;3.40;;
10661;SDS011;5379;51.034;7.006;2023-02-14T00:04:43;11.53;;;3.87;;
10661;SDS011;5379;51.034;7.006;2023-02-14T00:07:12;6.30;;;3.67;;
10661;SDS011;5379;51.034;7.006;2023-02-14T00:09:39;3.70;;;3.40;;
10661;SDS011;5379;51.034;7.006;2023-02-14T00:12:06;4.00;;;3.70;;
10661;SDS011;5379;51.034;7.006;2023-02-14T00:14:33;7.90;;;3.73;;
10661;SDS011;5379;51.034;7.006;2023-02-14T00:17:18;4.30;;;3.67;;
10661;SDS011;5379;51.034;7.006;2023-02-14T00:19:45;4.27;;;3.87;;
10661;SDS011;5379;51.034;7.006;2023-02-14T00:22:15;5.37;;;3.83;;
10661;SDS011;5379;51.034;7.006;2023-02-14T00:24:42;3.97;;;3.63;;
10661;SDS011;5379;51.034;7.006;2023-02-14T00:27:09;4.27;;;3.87;;
10661;SDS011;5379;51.034;7.006;2023-02-14T00:29:36;5.20;;;3.57;;
10661;SDS011;5379;51.034;7.006;2023-02-14T00:32:03;5.23;;;3.17;;
10661;SDS011;5379;51.034;7.006;2023-02-14T00:34:31;4.00;;;3.57;;
10661;SDS011;5379;51.034;7.006;2023-02-14T00:37:00;3.73;;;3.43;;
10661;SDS011;5379;51.034;7.006;2023-02-14T00:39:27;8.63;;;3.60;;
10661;SDS011;5379;51.034;7.006;2023-02-14T00:41:55;5.17;;;3.70;;
10661;SDS011;5379;51.034;7.006;2023-02-14T00:44:22;4.43;;;3.83;;
10661;SDS011;5379;51.034;7.006;2023-02-14T00:46:49;3.83;;;3.53;;
10661;SDS011;5379;51.034;7.006;2023-02-14T00:49:16;4.00;;;3.60;;
10661;SDS011;5379;51.034;7.006;2023-02-14T00:51:44;4.13;;;3.50;;
10661;SDS011;5379;51.034;7.006;2023-02-14T00:54:11;7.07;;;3.67;;
10661;SDS011;5379;51.034;7.006;2023-02-14T00:56:38;6.87;;;3.60;;
10661;SDS011;5379;51.034;7.006;2023-02-14T00:59:05;4.70;;;4.00;;
10661;SDS011;5379;51.034;7.006;2023-02-14T05:32:22;9.47;;;7.20;;
10661;SDS011;5379;51.034;7.006;2023-02-14T05:34:49;10.00;;;7.83;;
10661;SDS011;5379;51.034;7.006;2023-02-14T05:37:16;12.10;;;8.20;;
10661;SDS011;5379;51.034;7.006;2023-02-14T05:39:43;12.70;;;8.30;;
10661;SDS011;5379;51.034;7.006;2023-02-14T05:42:09;11.87;;;7.67;;
10661;SDS011;5379;51.034;7.006;2023-02-14T05:44:36;15.50;;;8.67;;
10661;SDS011;5379;51.034;7.006;2023-02-14T05:47:03;17.77;;;9.13;;
10661;SDS011;5379;51.034;7.006;2023-02-14T05:49:33;9.70;;;8.33;;
10661;SDS011;5379;51.034;7.006;2023-02-14T05:52:00;11.50;;;7.90;;
10661;SDS011;5379;51.034;7.006;2023-02-14T05:54:27;11.30;;;8.57;;
10661;SDS011;5379;51.034;7.006;2023-02-14T05:56:54;9.17;;;8.27;;
10661;SDS011;5379;51.034;7.006;2023-02-14T05:59:21;12.13;;;8.27;;
10661;SDS011;5379;51.034;7.006;2023-02-14T06:01:47;10.07;;;8.30;;
10661;SDS011;5379;51.034;7.006;2023-02-14T06:04:14;10.00;;;9.00;;
10661;SDS011;5379;51.034;7.006;2023-02-14T06:06:43;13.37;;;9.03;;
10661;SDS011;5379;51.034;7.006;2023-02-14T06:09:10;9.20;;;7.93;;
10661;SDS011;5379;51.034;7.006;2023-02-14T06:11:37;13.17;;;9.27;;
10661;SDS011;5379;51.034;7.006;2023-02-14T06:14:03;11.63;;;8.47;;
10661;SDS011;5379;51.034;7.006;2023-02-14T06:16:30;11.53;;;9.00;;
10661;SDS011;5379;51.034;7.006;2023-02-14T06:18:57;8.63;;;7.67;;
10661;SDS011;5379;51.034;7.006;2023-02-14T06:21:24;12.10;;;8.90;;
10661;SDS011;5379;51.034;7.006;2023-02-14T06:23:52;14.00;;;8.63;;
10661;SDS011;5379;51.034;7.006;2023-02-14T06:26:19;10.27;;;8.47;;
10661;SDS011;5379;51.034;7.006;2023-02-14T06:28:46;9.40;;;8.37;;
10661;SDS011;5379;51.034;7.006;2023-02-14T06:31:18;10.80;;;9.00;;
10661;SDS011;5379;51.034;7.006;2023-02-14T06:33:45;10.07;;;8.50;;
10661;SDS011;5379;51.034;7.006;2023-02-14T06:36:12;13.60;;;8.63;;
10661;SDS011;5379;51.034;7.006;2023-02-14T06:38:39;18.10;;;8.87;;
10661;SDS011;5379;51.034;7.006;2023-02-14T06:41:08;12.23;;;8.97;;
10661;SDS011;5379;51.034;7.006;2023-02-14T06:43:36;13.20;;;9.20;;
10661;SDS011;5379;51.034;7.006;2023-02-14T06:46:03;26.43;;;10.50;;
10661;SDS011;5379;51.034;7.006;2023-02-14T06:48:30;13.27;;;10.10;;
10661;SDS011;5379;51.034;7.006;2023-02-14T06:50:57;15.93;;;10.83;;
10661;SDS011;5379;51.034;7.006;2023-02-14T06:53:24;14.00;;;9.80;;
10661;SDS011;5379;51.034;7.006;2023-02-14T06:55:51;15.10;;;10.33;;
10661;SDS011;5379;51.034;7.006;2023-02-14T06:58:20;14.43;;;10.57;;
10661;SDS011;5379;51.034;7.006;2023-02-14T07:00:47;18.73;;;11.83;;
10661;SDS011;5379;51.034;7.006;2023-02-14T07:03:14;12.17;;;10.00;;
10661;SDS011;5379;51.034;7.006;2023-02-14T07:05:41;12.83;;;10.10;;
10661;SDS011;5379;51.034;7.006;2023-02-14T07:08:09;13.90;;;10.07;;
10661;SDS011;5379;51.034;7.006;2023-02-14T07:10:36;14.90;;;10.57;;
10661;SDS011;5379;51.034;7.006;2023-02-14T07:13:03;16.30;;;11.93;;
10661;SDS011;5379;51.034;7.006;2023-02-14T07:15:32;14.83;;;10.93;;
10661;SDS011;5379;51.034;7.006;2023-02-14T07:17:58;20.50;;;11.80;;
10661;SDS011;5379;51.034;7.006;2023-02-14T07:20:25;18.07;;;11.27;;
10661;SDS011;5379;51.034;7.006;2023-02-14T07:22:52;14.00;;;10.73;;
10661;SDS011;5379;51.034;7.006;2023-02-14T07:25:19;17.33;;;10.83;;
10661;SDS011;5379;51.034;7.006;2023-02-14T07:27:47;18.37;;;11.53;;
10661;SDS011;5379;51.034;7.006;2023-02-14T07:30:14;18.63;;;11.00;;
10661;SDS011;5379;51.034;7.006;2023-02-14T07:32:43;14.37;;;10.40;;
10661;SDS011;5379;51.034;7.006;2023-02-14T07:35:10;18.13;;;10.90;;
10661;SDS011;5379;51.034;7.006;2023-02-14T07:37:37;15.23;;;11.60;;
10661;SDS011;5379;51.034;7.006;2023-02-14T07:40:04;12.67;;;10.47;;
10661;SDS011;5379;51.034;7.006;2023-02-14T07:42:32;18.33;;;11.87;;
10661;SDS011;5379;51.034;7.006;2023-02-14T07:44:59;18.13;;;11.23;;
10661;SDS011;5379;51.034;7.006;2023-02-14T07:47:28;21.67;;;11.70;;
10661;SDS011;5379;51.034;7.006;2023-02-14T07:49:56;12.67;;;10.77;;
10661;SDS011;5379;51.034;7.006;2023-02-14T07:52:23;12.37;;;9.77;;
10661;SDS011;5379;51.034;7.006;2023-02-14T07:54:50;15.53;;;9.43;;
10661;SDS011;5379;51.034;7.006;2023-02-14T07:57:17;13.13;;;10.03;;
10661;SDS011;5379;51.034;7.006;2023-02-14T07:59:44;12.90;;;10.17;;
10661;SDS011;5379;51.034;7.006;2023-02-14T08:02:11;14.60;;;10.87;;
10661;SDS011;5379;51.034;7.006;2023-02-14T08:04:38;13.00;;;9.93;;
10661;SDS011;5379;51.034;7.006;2023-02-14T08:07:06;15.20;;;10.17;;
10661;SDS011;5379;51.034;7.006;2023-02-14T08:09:33;14.63;;;10.67;;
10661;SDS011;5379;51.034;7.006;2023-02-14T08:12:00;21.60;;;10.57;;
10661;SDS011;5379;51.034;7.006;2023-02-14T08:14:44;11.77;;;9.70;;
10661;SDS011;5379;51.034;7.006;2023-02-14T08:17:11;14.37;;;10.23;;
10661;SDS011;5379;51.034;7.006;2023-02-14T08:19:38;15.83;;;11.43;;
10661;SDS011;5379;51.034;7.006;2023-02-14T08:22:07;17.33;;;10.40;;
10661;SDS011;5379;51.034;7.006;2023-02-14T08:24:34;12.63;;;10.30;;
10661;SDS011;5379;51.034;7.006;2023-02-14T08:27:01;13.00;;;9.73;;
10661;SDS011;5379;51.034;7.006;2023-02-14T08:29:28;14.70;;;10.93;;
10661;SDS011;5379;51.034;7.006;2023-02-14T08:31:55;18.23;;;11.03;;
10661;SDS011;5379;51.034;7.006;2023-02-14T08:34:24;11.10;;;9.77;;
10661;SDS011;5379;51.034;7.006;2023-02-14T08:36:51;15.53;;;11.47;;
10661;SDS011;5379;51.034;7.006;2023-02-14T08:39:20;14.80;;;10.57;;
10661;SDS011;5379;51.034;7.006;2023-02-14T08:41:47;14.30;;;10.47;;
10661;SDS011;5379;51.034;7.006;2023-02-14T08:44:14;14.03;;;10.73;;
10661;SDS011;5379;51.034;7.006;2023-02-14T08:46:41;11.13;;;9.73;;
10661;SDS011;5379;51.034;7.006;2023-02-14T08:49:08;13.87;;;10.47;;
10661;SDS011;5379;51.034;7.006;2023-02-14T08:51:35;14.90;;;10.50;;
10661;SDS011;5379;51.034;7.006;2023-02-14T08:54:02;17.27;;;10.10;;
10661;SDS011;5379;51.034;7.006;2023-02-14T08:56:31;12.47;;;10.07;;
10661;SDS011;5379;51.034;7.006;2023-02-14T08:58:58;15.33;;;10.37;;
10661;SDS011;5379;51.034;7.006;2023-02-14T09:01:25;14.73;;;10.83;;
10661;SDS011;5379;51.034;7.006;2023-02-14T09:03:53;16.93;;;10.13;;
10661;SDS011;5379;51.034;7.006;2023-02-14T09:06:20;13.90;;;9.53;;
10661;SDS011;5379;51.034;7.006;2023-02-14T09:08:47;13.17;;;9.57;;
10661;SDS011;5379;51.034;7.006;2023-02-14T09:11:16;14.87;;;10.30;;
10661;SDS011;5379;51.034;7.006;2023-02-14T09:13:47;13.30;;;10.27;;
10661;SDS011;5379;51.034;7.006;2023-02-14T09:16:16;12.20;;;9.70;;
10661;SDS011;5379;51.034;7.006;2023-02-14T09:18:44;12.20;;;9.23;;
10661;SDS011;5379;51.034;7.006;2023-02-14T09:21:12;12.83;;;9.17;;
10661;SDS011;5379;51.034;7.006;2023-02-14T09:23:41;17.07;;;9.00;;
10661;SDS011;5379;51.034;7.006;2023-02-14T09:26:09;16.70;;;9.53;;
10661;SDS011;5379;51.034;7.006;2023-02-14T09:28:37;12.10;;;9.07;;
10661;SDS011;5379;51.034;7.006;2023-02-14T09:31:11;11.07;;;9.73;;
10661;SDS011;5379;51.034;7.006;2023-02-14T09:33:39;24.80;;;10.50;;
10661;SDS011;5379;51.034;7.006;2023-02-14T09:36:25;14.33;;;9.10;;
10661;SDS011;5379;51.034;7.006;2023-02-14T09:39:09;13.53;;;9.47;;
10661;SDS011;5379;51.034;7.006;2023-02-14T09:41:47;13.13;;;8.90;;
10661;SDS011;5379;51.034;7.006;2023-02-14T09:44:30;13.93;;;9.20;;
10661;SDS011;5379;51.034;7.006;2023-02-14T09:47:02;13.10;;;9.17;;
10661;SDS011;5379;51.034;7.006;2023-02-14T09:49:32;17.97;;;9.50;;
10661;SDS011;5379;51.034;7.006;2023-02-14T09:52:03;12.47;;;8.93;;
10661;SDS011;5379;51.034;7.006;2023-02-14T09:54:33;11.27;;;8.67;;
10661;SDS011;5379;51.034;7.006;2023-02-14T09:57:02;12.23;;;8.40;;
10661;SDS011;5379;51.034;7.006;2023-02-14T09:59:36;11.13;;;8.40;;
10661;SDS011;5379;51.034;7.006;2023-02-14T10:02:16;13.30;;;9.33;;
10661;SDS011;5379;51.034;7.006;2023-02-14T10:04:56;13.90;;;9.27;;
10661;SDS011;5379;51.034;7.006;2023-02-14T10:07:32;10.20;;;8.37;;
10661;SDS011;5379;51.034;7.006;2023-02-14T10:10:06;16.10;;;8.83;;
10661;SDS011;5379;51.034;7.006;2023-02-14T10:12:40;10.57;;;8.57;;
10661;SDS011;5379;51.034;7.006;2023-02-14T10:15:12;18.20;;;9.60;;
10661;SDS011;5379;51.034;7.006;2023-02-14T10:17:43;20.10;;;9.20;;
10661;SDS011;5379;51.034;7.006;2023-02-14T10:20:15;15.87;;;8.97;;
10661;SDS011;5379;51.034;7.006;2023-02-14T10:22:49;14.97;;;9.23;;
10661;SDS011;5379;51.034;7.006;2023-02-14T10:25:22;13.90;;;8.50;;
10661;SDS011;5379;51.034;7.006;2023-02-14T10:27:54;9.77;;;8.30;;
10661;SDS011;5379;51.034;7.006;2023-02-14T10:30:23;10.83;;;8.80;;
10661;SDS011;5379;51.034;7.006;2023-02-14T10:32:55;8.57;;;7.77;;
10661;SDS011;5379;51.034;7.006;2023-02-14T10:35:29;8.73;;;7.80;;
10661;SDS011;5379;51.034;7.006;2023-02-14T10:38:04;14.10;;;8.60;;
10661;SDS011;5379;51.034;7.006;2023-02-14T10:40:47;14.73;;;9.43;;
10661;SDS011;5379;51.034;7.006;2023-02-14T10:43:28;11.70;;;8.43;;
10661;SDS011;5379;51.034;7.006;2023-02-14T10:46:03;11.40;;;9.07;;
10661;SDS011;5379;51.034;7.006;2023-02-14T10:48:43;9.33;;;8.17;;
10661;SDS011;5379;51.034;7.006;2023-02-14T10:51:18;9.90;;;8.47;;
10661;SDS011;5379;51.034;7.006;2023-02-14T10:53:50;13.30;;;7.80;;
10661;SDS011;5379;51.034;7.006;2023-02-14T10:56:33;11.70;;;8.50;;
10661;SDS011;5379;51.034;7.006;2023-02-14T10:59:07;9.77;;;8.70;;
10661;SDS011;5379;51.034;7.006;2023-02-14T11:01:42;12.00;;;8.60;;
10661;SDS011;5379;51.034;7.006;2023-02-14T11:04:12;11.07;;;7.93;;
10661;SDS011;5379;51.034;7.006;2023-02-14T11:06:42;15.50;;;8.57;;
10661;SDS011;5379;51.034;7.006;2023-02-14T11:09:12;10.83;;;8.20;;
10661;SDS011;5379;51.034;7.006;2023-02-14T11:11:39;11.73;;;8.00;;
10661;SDS011;5379;51.034;7.006;2023-02-14T11:14:20;12.70;;;8.30;;
10661;SDS011;5379;51.034;7.006;2023-02-14T11:16:50;14.27;;;8.20;;
10661;SDS011;5379;51.034;7.006;2023-02-14T11:19:20;11.17;;;8.37;;
10661;SDS011;5379;51.034;7.006;2023-02-14T11:21:49;13.03;;;8.47;;
10661;SDS011;5379;51.034;7.006;2023-02-14T11:24:18;11.93;;;8.60;;
10661;SDS011;5379;51.034;7.006;2023-02-14T11:26:50;12.93;;;8.30;;
10661;SDS011;5379;51.034;7.006;2023-02-14T11:29:21;10.97;;;8.60;;
10661;SDS011;5379;51.034;7.006;2023-02-14T11:31:52;12.90;;;9.27;;
10661;SDS011;5379;51.034;7.006;2023-02-14T11:34:26;10.63;;;7.77;;
10661;SDS011;5379;51.034;7.006;2023-02-14T11:37:00;13.60;;;8.40;;
10661;SDS011;5379;51.034;7.006;2023-02-14T11:39:29;11.43;;;8.07;;
10661;SDS011;5379;51.034;7.006;2023-02-14T11:41:59;15.93;;;8.60;;
10661;SDS011;5379;51.034;7.006;2023-02-14T11:44:29;10.17;;;7.17;;
10661;SDS011;5379;51.034;7.006;2023-02-14T11:49:54;9.47;;;7.53;;
10661;SDS011;5379;51.034;7.006;2023-02-14T11:52:23;11.57;;;8.10;;
10661;SDS011;5379;51.034;7.006;2023-02-14T11:54:53;8.33;;;7.33;;
10661;SDS011;5379;51.034;7.006;2023-02-14T11:57:22;9.47;;;7.50;;
10661;SDS011;5379;51.034;7.006;2023-02-14T11:59:53;9.57;;;7.20;;
10661;SDS011;5379;51.034;7.006;2023-02-14T12:02:27;10.47;;;8.33;;
10661;SDS011;5379;51.034;7.006;2023-02-14T12:04:59;7.80;;;6.97;;
10661;SDS011;5379;51.034;7.006;2023-02-14T12:07:30;9.70;;;7.63;;
10661;SDS011;5379;51.034;7.006;2023-02-14T12:10:07;12.07;;;8.30;;
10661;SDS011;5379;51.034;7.006;2023-02-14T12:12:50;9.80;;;7.23;;
10661;SDS011;5379;51.034;7.006;2023-02-14T12:15:27;7.27;;;6.57;;
10661;SDS011;5379;51.034;7.006;2023-02-14T12:18:01;8.47;;;6.93;;
10661;SDS011;5379;51.034;7.006;2023-02-14T12:20:51;12.17;;;7.97;;
10661;SDS011;5379;51.034;7.006;2023-02-14T12:23:23;9.20;;;7.77;;
10661;SDS011;5379;51.034;7.006;2023-02-14T12:25:54;7.90;;;6.90;;
10661;SDS011;5379;51.034;7.006;2023-02-14T12:28:24;11.80;;;7.13;;
10661;SDS011;5379;51.034;7.006;2023-02-14T12:30:56;8.10;;;6.90;;
10661;SDS011;5379;51.034;7.006;2023-02-14T12:33:23;9.97;;;7.00;;
10661;SDS011;5379;51.034;7.006;2023-02-14T12:35:54;8.70;;;7.27;;
10661;SDS011;5379;51.034;7.006;2023-02-14T12:38:30;9.47;;;7.70;;
10661;SDS011;5379;51.034;7.006;2023-02-14T12:41:08;10.23;;;7.53;;
10661;SDS011;5379;51.034;7.006;2023-02-14T12:43:47;14.53;;;7.07;;
10661;SDS011;5379;51.034;7.006;2023-02-14T12:46:24;9.57;;;7.20;;
10661;SDS011;5379;51.034;7.006;2023-02-14T12:49:23;11.47;;;6.73;;
10661;SDS011;5379;51.034;7.006;2023-02-14T12:52:00;8.70;;;6.37;;
10661;SDS011;5379;51.034;7.006;2023-02-14T12:54:48;10.23;;;7.77;;
10661;SDS011;5379;51.034;7.006;2023-02-14T12:57:32;9.87;;;5.80;;
10661;SDS011;5379;51.034;7.006;2023-02-14T13:00:14;6.77;;;5.67;;
10661;SDS011;5379;51.034;7.006;2023-02-14T13:05:49;8.30;;;6.10;;
10661;SDS011;5379;51.034;7.006;2023-02-14T13:08:28;7.87;;;6.07;;
10661;SDS011;5379;51.034;7.006;2023-02-14T13:11:07;8.90;;;6.03;;
10661;SDS011;5379;51.034;7.006;2023-02-14T13:13:45;10.00;;;6.50;;
10661;SDS011;5379;51.034;7.006;2023-02-14T13:16:20;5.90;;;5.30;;
10661;SDS011;5379;51.034;7.006;2023-02-14T13:18:53;10.73;;;6.87;;
10661;SDS011;5379;51.034;7.006;2023-02-14T13:21:24;9.50;;;6.53;;
10661;SDS011;5379;51.034;7.006;2023-02-14T13:23:55;11.47;;;6.90;;
10661;SDS011;5379;51.034;7.006;2023-02-14T13:26:29;7.73;;;6.73;;
10661;SDS011;5379;51.034;7.006;2023-02-14T13:29:01;10.27;;;6.67;;
10661;SDS011;5379;51.034;7.006;2023-02-14T13:31:29;8.20;;;5.13;;
10661;SDS011;5379;51.034;7.006;2023-02-14T13:33:57;8.13;;;5.93;;
10661;SDS011;5379;51.034;7.006;2023-02-14T13:36:28;7.70;;;6.10;;
10661;SDS011;5379;51.034;7.006;2023-02-14T13:38:58;6.93;;;6.07;;
10661;SDS011;5379;51.034;7.006;2023-02-14T13:41:26;7.53;;;6.17;;
10661;SDS011;5379;51.034;7.006;2023-02-14T13:43:54;9.73;;;5.60;;
10661;SDS011;5379;51.034;7.006;2023-02-14T13:49:23;8.53;;;6.53;;
10661;SDS011;5379;51.034;7.006;2023-02-14T13:51:54;12.37;;;6.83;;
10661;SDS011;5379;51.034;7.006;2023-02-14T13:54:31;8.67;;;6.43;;
10661;SDS011;5379;51.034;7.006;2023-02-14T13:57:24;6.83;;;6.20;;
10661;SDS011;5379;51.034;7.006;2023-02-14T14:03:01;6.87;;;6.17;;
10661;SDS011;5379;51.034;7.006;2023-02-14T14:08:17;9.87;;;6.67;;
10661;SDS011;5379;51.034;7.006;2023-02-14T14:11:09;6.77;;;6.07;;
10661;SDS011;5379;51.034;7.006;2023-02-14T14:13:53;7.17;;;5.97;;
10661;SDS011;5379;51.034;7.006;2023-02-14T14:16:29;13.17;;;6.20;;
10661;SDS011;5379;51.034;7.006;2023-02-14T14:18:57;8.83;;;5.67;;
10661;SDS011;5379;51.034;7.006;2023-02-14T14:21:27;8.17;;;6.13;;
10661;SDS011;5379;51.034;7.006;2023-02-14T14:24:04;10.63;;;7.17;;
10661;SDS011;5379;51.034;7.006;2023-02-14T14:26:44;5.87;;;5.37;;
10661;SDS011;5379;51.034;7.006;2023-02-14T14:29:15;7.20;;;5.90;;
10661;SDS011;5379;51.034;7.006;2023-02-14T14:31:49;8.07;;;5.90;;
10661;SDS011;5379;51.034;7.006;2023-02-14T14:34:21;10.20;;;6.00;;
10661;SDS011;5379;51.034;7.006;2023-02-14T14:36:50;7.03;;;6.33;;
10661;SDS011;5379;51.034;7.006;2023-02-14T14:39:27;6.37;;;5.77;;
10661;SDS011;5379;51.034;7.006;2023-02-14T14:42:05;17.17;;;7.43;;
10661;SDS011;5379;51.034;7.006;2023-02-14T14:44:34;5.63;;;5.03;;
10661;SDS011;5379;51.034;7.006;2023-02-14T14:47:03;11.93;;;6.37;;
10661;SDS011;5379;51.034;7.006;2023-02-14T14:49:30;10.67;;;5.50;;
10661;SDS011;5379;51.034;7.006;2023-02-14T14:51:58;7.17;;;6.13;;
10661;SDS011;5379;51.034;7.006;2023-02-14T14:54:25;6.53;;;5.60;;
10661;SDS011;5379;51.034;7.006;2023-02-14T14:56:54;7.73;;;5.63;;
10661;SDS011;5379;51.034;7.006;2023-02-14T14:59:28;6.53;;;5.13;;
10661;SDS011;5379;51.034;7.006;2023-02-14T15:01:59;5.60;;;5.10;;
10661;SDS011;5379;51.034;7.006;2023-02-14T15:04:27;8.43;;;5.47;;
10661;SDS011;5379;51.034;7.006;2023-02-14T15:06:56;8.93;;;5.70;;
10661;SDS011;5379;51.034;7.006;2023-02-14T15:09:41;9.10;;;5.37;;
10661;SDS011;5379;51.034;7.006;2023-02-14T15:12:08;9.67;;;6.30;;
10661;SDS011;5379;51.034;7.006;2023-02-14T15:14:56;5.70;;;4.97;;
10661;SDS011;5379;51.034;7.006;2023-02-14T15:17:24;9.73;;;5.97;;
10661;SDS011;5379;51.034;7.006;2023-02-14T15:19:54;8.57;;;5.63;;
10661;SDS011;5379;51.034;7.006;2023-02-14T15:22:24;6.63;;;5.57;;
10661;SDS011;5379;51.034;7.006;2023-02-14T15:24:53;6.13;;;5.40;;
10661;SDS011;5379;51.034;7.006;2023-02-14T15:27:22;8.67;;;6.43;;
10661;SDS011;5379;51.034;7.006;2023-02-14T15:29:55;7.37;;;5.23;;
10661;SDS011;5379;51.034;7.006;2023-02-14T15:32:25;7.20;;;5.93;;
10661;SDS011;5379;51.034;7.006;2023-02-14T15:34:55;8.80;;;5.80;;
10661;SDS011;5379;51.034;7.006;2023-02-14T15:37:23;7.77;;;5.37;;
10661;SDS011;5379;51.034;7.006;2023-02-14T15:39:51;9.63;;;5.33;;
10661;SDS011;5379;51.034;7.006;2023-02-14T15:42:21;8.07;;;5.60;;
10661;SDS011;5379;51.034;7.006;2023-02-14T15:47:45;9.57;;;6.03;;
10661;SDS011;5379;51.034;7.006;2023-02-14T15:50:15;6.60;;;5.67;;
10661;SDS011;5379;51.034;7.006;2023-02-14T15:52:44;8.47;;;6.07;;
10661;SDS011;5379;51.034;7.006;2023-02-14T15:55:14;6.90;;;5.87;;
10661;SDS011;5379;51.034;7.006;2023-02-14T15:57:44;8.70;;;6.43;;
10661;SDS011;5379;51.034;7.006;2023-02-14T16:00:26;7.10;;;5.77;;
10661;SDS011;5379;51.034;7.006;2023-02-14T16:02:53;10.20;;;5.70;;
10661;SDS011;5379;51.034;7.006;2023-02-14T16:05:25;6.20;;;5.63;;
10661;SDS011;5379;51.034;7.006;2023-02-14T16:07:56;6.00;;;5.50;;
10661;SDS011;5379;51.034;7.006;2023-02-14T16:10:25;6.30;;;5.63;;
10661;SDS011;5379;51.034;7.006;2023-02-14T16:12:55;7.23;;;6.17;;
10661;SDS011;5379;51.034;7.006;2023-02-14T16:15:24;8.20;;;6.23;;
10661;SDS011;5379;51.034;7.006;2023-02-14T16:17:54;10.57;;;6.13;;
10661;SDS011;5379;51.034;7.006;2023-02-14T16:23:43;8.40;;;5.67;;
10661;SDS011;5379;51.034;7.006;2023-02-14T16:26:51;7.13;;;6.00;;
10661;SDS011;5379;51.034;7.006;2023-02-14T16:30:01;6.47;;;5.40;;
10661;SDS011;5379;51.034;7.006;2023-02-14T16:32:46;6.83;;;6.13;;
10661;SDS011;5379;51.034;7.006;2023-02-14T16:35:38;5.23;;;4.80;;
10661;SDS011;5379;51.034;7.006;2023-02-14T16:38:24;11.93;;;6.23;;
10661;SDS011;5379;51.034;7.006;2023-02-14T16:41:00;8.83;;;6.40;;
10661;SDS011;5379;51.034;7.006;2023-02-14T16:43:30;8.77;;;6.40;;
10661;SDS011;5379;51.034;7.006;2023-02-14T16:45:58;6.67;;;5.90;;
10661;SDS011;5379;51.034;7.006;2023-02-14T16:48:36;6.90;;;6.20;;
10661;SDS011;5379;51.034;7.006;2023-02-14T16:51:03;6.80;;;6.20;;
10661;SDS011;5379;51.034;7.006;2023-02-14T16:53:31;18.77;;;6.93;;
10661;SDS011;5379;51.034;7.006;2023-02-14T16:56:00;9.27;;;6.70;;
10661;SDS011;5379;51.034;7.006;2023-02-14T16:58:28;11.17;;;7.20;;
10661;SDS011;5379;51.034;7.006;2023-02-14T17:01:00;9.50;;;7.37;;
10661;SDS011;5379;51.034;7.006;2023-02-14T17:03:27;7.40;;;6.40;;
10661;SDS011;5379;51.034;7.006;2023-02-14T17:05:56;10.43;;;7.20;;
10661;SDS011;5379;51.034;7.006;2023-02-14T17:08:25;12.10;;;7.00;;
10661;SDS011;5379;51.034;7.006;2023-02-14T17:10:53;7.37;;;6.47;;
10661;SDS011;5379;51.034;7.006;2023-02-14T17:13:22;20.80;;;7.23;;
10661;SDS011;5379;51.034;7.006;2023-02-14T17:15:52;12.03;;;6.60;;
10661;SDS011;5379;51.034;7.006;2023-02-14T17:18:21;11.23;;;7.27;;
10661;SDS011;5379;51.034;7.006;2023-02-14T17:20:49;12.23;;;7.03;;
10661;SDS011;5379;51.034;7.006;2023-02-14T17:23:18;8.40;;;7.10;;
10661;SDS011;5379;51.034;7.006;2023-02-14T17:25:45;6.70;;;6.00;;
10661;SDS011;5379;51.034;7.006;2023-02-14T17:28:13;7.43;;;6.53;;
10661;SDS011;5379;51.034;7.006;2023-02-14T17:30:40;7.33;;;6.23;;
10661;SDS011;5379;51.034;7.006;2023-02-14T17:33:07;10.87;;;7.20;;
10661;SDS011;5379;51.034;7.006;2023-02-14T17:35:34;10.43;;;6.67;;
10661;SDS011;5379;51.034;7.006;2023-02-14T17:38:01;11.07;;;6.83;;
10661;SDS011;5379;51.034;7.006;2023-02-14T17:40:30;11.30;;;7.10;;
10661;SDS011;5379;51.034;7.006;2023-02-14T17:42:57;9.60;;;7.20;;
10661;SDS011;5379;51.034;7.006;2023-02-14T17:45:25;10.30;;;7.07;;
10661;SDS011;5379;51.034;7.006;2023-02-14T17:47:52;9.33;;;7.50;;
10661;SDS011;5379;51.034;7.006;2023-02-14T17:50:19;8.47;;;7.27;;
10661;SDS011;5379;51.034;7.006;2023-02-14T17:52:46;9.13;;;7.33;;
10661;SDS011;5379;51.034;7.006;2023-02-14T17:55:13;8.43;;;7.20;;
10661;SDS011;5379;51.034;7.006;2023-02-14T17:57:42;9.37;;;7.43;;
10661;SDS011;5379;51.034;7.006;2023-02-14T18:00:09;7.70;;;6.77;;
10661;SDS011;5379;51.034;7.006;2023-02-14T18:02:38;9.60;;;7.30;;
10661;SDS011;5379;51.034;7.006;2023-02-14T18:05:05;9.57;;;8.33;;
10661;SDS011;5379;51.034;7.006;2023-02-14T18:07:33;9.20;;;7.97;;
10661;SDS011;5379;51.034;7.006;2023-02-14T18:10:00;10.17;;;7.87;;
10661;SDS011;5379;51.034;7.006;2023-02-14T18:12:27;11.40;;;7.93;;
10661;SDS011;5379;51.034;7.006;2023-02-14T18:14:55;11.70;;;7.77;;
10661;SDS011;5379;51.034;7.006;2023-02-14T18:17:22;8.00;;;7.17;;
10661;SDS011;5379;51.034;7.006;2023-02-14T18:19:49;12.20;;;8.03;;
10661;SDS011;5379;51.034;7.006;2023-02-14T18:22:16;12.17;;;8.03;;
10661;SDS011;5379;51.034;7.006;2023-02-14T18:24:43;15.07;;;7.93;;
10661;SDS011;5379;51.034;7.006;2023-02-14T18:27:10;13.23;;;8.37;;
10661;SDS011;5379;51.034;7.006;2023-02-14T18:29:39;11.10;;;8.63;;
10661;SDS011;5379;51.034;7.006;2023-02-14T18:32:08;10.07;;;7.87;;
10661;SDS011;5379;51.034;7.006;2023-02-14T18:34:35;9.70;;;7.57;;
10661;SDS011;5379;51.034;7.006;2023-02-14T18:37:02;9.40;;;8.13;;
10661;SDS011;5379;51.034;7.006;2023-02-14T18:39:30;12.23;;;8.70;;
10661;SDS011;5379;51.034;7.006;2023-02-14T18:41:57;14.00;;;8.27;;
10661;SDS011;5379;51.034;7.006;2023-02-14T18:44:25;12.07;;;8.23;;
10661;SDS011;5379;51.034;7.006;2023-02-14T18:46:52;8.63;;;7.80;;
10661;SDS011;5379;51.034;7.006;2023-02-14T18:49:20;9.60;;;8.60;;
10661;SDS011;5379;51.034;7.006;2023-02-14T18:51:47;9.67;;;8.07;;
10661;SDS011;5379;51.034;7.006;2023-02-14T18:54:14;11.17;;;8.50;;
10661;SDS011;5379;51.034;7.006;2023-02-14T18:56:41;10.37;;;8.57;;
10661;SDS011;5379;51.034;7.006;2023-02-14T18:59:09;10.70;;;7.87;;
10661;SDS011;5379;51.034;7.006;2023-02-14T19:01:38;11.60;;;8.87;;
10661;SDS011;5379;51.034;7.006;2023-02-14T19:04:08;9.93;;;8.30;;
10661;SDS011;5379;51.034;7.006;2023-02-14T19:06:37;14.43;;;8.60;;
10661;SDS011;5379;51.034;7.006;2023-02-14T19:09:06;11.37;;;9.37;;
10661;SDS011;5379;51.034;7.006;2023-02-14T19:11:35;9.27;;;8.07;;
10661;SDS011;5379;51.034;7.006;2023-02-14T19:14:02;10.50;;;9.40;;
10661;SDS011;5379;51.034;7.006;2023-02-14T19:16:34;15.60;;;10.23;;
10661;SDS011;5379;51.034;7.006;2023-02-14T19:19:02;13.27;;;9.00;;
10661;SDS011;5379;51.034;7.006;2023-02-14T19:21:30;13.50;;;9.53;;
10661;SDS011;5379;51.034;7.006;2023-02-14T19:24:00;12.40;;;8.30;;
10661;SDS011;5379;51.034;7.006;2023-02-14T19:26:32;14.00;;;9.00;;
10661;SDS011;5379;51.034;7.006;2023-02-14T19:29:02;16.33;;;8.93;;
10661;SDS011;5379;51.034;7.006;2023-02-14T19:31:32;11.13;;;8.53;;
10661;SDS011;5379;51.034;7.006;2023-02-14T19:34:01;14.40;;;8.70;;
10661;SDS011;5379;51.034;7.006;2023-02-14T19:36:28;13.67;;;9.13;;
10661;SDS011;5379;51.034;7.006;2023-02-14T19:38:56;11.57;;;9.80;;
10661;SDS011;5379;51.034;7.006;2023-02-14T19:41:25;10.27;;;9.13;;
10661;SDS011;5379;51.034;7.006;2023-02-14T19:43:54;12.73;;;9.70;;
10661;SDS011;5379;51.034;7.006;2023-02-14T19:46:22;10.27;;;8.80;;
10661;SDS011;5379;51.034;7.006;2023-02-14T19:48:49;18.83;;;9.20;;
10661;SDS011;5379;51.034;7.006;2023-02-14T19:51:17;10.63;;;9.50;;
10661;SDS011;5379;51.034;7.006;2023-02-14T19:53:47;12.60;;;9.17;;
10661;SDS011;5379;51.034;7.006;2023-02-14T19:56:17;11.47;;;9.67;;
10661;SDS011;5379;51.034;7.006;2023-02-14T19:58:47;10.53;;;9.17;;
10661;SDS011;5379;51.034;7.006;2023-02-14T20:01:18;11.43;;;9.30;;
10661;SDS011;5379;51.034;7.006;2023-02-14T20:03:49;14.37;;;9.53;;